createdAt,value
2018-05-12T00:00:26.989Z,11.50
2018-05-12T00:02:55.303Z,11.50
2018-05-12T00:05:24.041Z,11.60
2018-05-12T00:07:52.803Z,11.60
2018-05-12T00:10:22.243Z,11.60
2018-05-12T00:12:49.795Z,11.60
2018-05-12T00:15:17.353Z,11.60
2018-05-12T00:17:45.877Z,11.60
2018-05-12T00:20:14.638Z,11.60
2018-05-12T00:22:43.402Z,11.60
2018-05-12T00:25:11.812Z,11.70
2018-05-12T00:27:39.316Z,11.70
2018-05-12T00:30:06.837Z,11.70
2018-05-12T00:32:34.336Z,11.70
2018-05-12T00:35:02.632Z,11.80
2018-05-12T00:37:30.420Z,11.80
2018-05-12T00:39:58.772Z,11.80
2018-05-12T00:42:26.350Z,11.70
2018-05-12T00:44:53.869Z,11.70
2018-05-12T00:47:22.133Z,11.70
2018-05-12T00:49:49.653Z,11.70
2018-05-12T00:52:17.161Z,11.80
2018-05-12T00:54:44.687Z,11.90
2018-05-12T00:57:12.185Z,11.90
2018-05-12T00:59:40.469Z,11.70
2018-05-12T01:02:08.736Z,11.70
2018-05-12T01:04:37.046Z,11.60
2018-05-12T01:07:04.544Z,11.50
2018-05-12T01:09:32.064Z,11.50
2018-05-12T01:11:59.612Z,11.40
2018-05-12T01:14:27.173Z,11.40
2018-05-12T01:16:54.695Z,11.30
2018-05-12T01:19:22.191Z,11.30
2018-05-12T01:21:49.733Z,11.30
2018-05-12T01:24:18.036Z,11.40
2018-05-12T01:26:45.576Z,11.30
2018-05-12T01:29:13.073Z,11.40
2018-05-12T01:31:40.705Z,11.40
2018-05-12T01:34:08.212Z,11.40
2018-05-12T01:36:35.721Z,11.40
2018-05-12T01:39:03.216Z,11.40
2018-05-12T01:41:30.732Z,11.40
2018-05-12T01:43:58.233Z,11.40
2018-05-12T01:46:25.745Z,11.40
2018-05-12T01:48:53.312Z,11.30
2018-05-12T01:51:20.861Z,11.30
2018-05-12T01:53:48.356Z,11.30
2018-05-12T01:56:15.876Z,11.30
2018-05-12T01:58:43.390Z,11.20
2018-05-12T02:01:10.908Z,11.10
2018-05-12T02:03:38.404Z,11.10
2018-05-12T02:06:05.925Z,11.10
2018-05-12T02:08:33.420Z,11.10
2018-05-12T02:11:00.929Z,11.10
2018-05-12T02:13:28.424Z,11.10
2018-05-12T02:15:55.944Z,11.10
2018-05-12T02:18:23.448Z,11.00
2018-05-12T02:20:50.960Z,11.00
2018-05-12T02:23:18.453Z,11.00
2018-05-12T02:25:45.969Z,11.00
2018-05-12T02:28:14.240Z,10.80
2018-05-12T02:30:42.519Z,10.80
2018-05-12T02:33:10.780Z,10.80
2018-05-12T02:35:39.066Z,10.80
2018-05-12T02:38:06.576Z,10.80
2018-05-12T02:40:34.093Z,10.80
2018-05-12T02:43:01.654Z,10.80
2018-05-12T02:45:29.165Z,10.80
2018-05-12T02:47:56.661Z,10.90
2018-05-12T02:50:24.937Z,11.00
2018-05-12T02:52:53.200Z,11.10
2018-05-12T02:55:21.510Z,11.10
2018-05-12T02:57:49.014Z,11.10
2018-05-12T03:00:16.544Z,11.10
2018-05-12T03:02:44.037Z,11.10
2018-05-12T03:05:11.631Z,11.20
2018-05-12T03:07:39.144Z,11.20
2018-05-12T03:10:06.670Z,11.20
2018-05-12T03:12:34.185Z,11.30
2018-05-12T03:15:02.449Z,11.30
2018-05-12T03:17:29.960Z,11.20
2018-05-12T03:19:57.458Z,11.20
2018-05-12T03:22:24.973Z,11.20
2018-05-12T03:24:52.469Z,11.20
2018-05-12T03:27:19.982Z,11.20
2018-05-12T03:29:47.481Z,11.20
2018-05-12T03:32:14.997Z,11.20
2018-05-12T03:34:42.501Z,11.20
2018-05-12T03:37:10.018Z,11.20
2018-05-12T03:39:37.521Z,11.20
2018-05-12T03:42:05.048Z,11.20
2018-05-12T03:44:32.541Z,11.30
2018-05-12T03:47:00.054Z,11.40
2018-05-12T03:49:27.565Z,11.40
2018-05-12T03:51:55.073Z,11.50
2018-05-12T03:54:22.569Z,11.50
2018-05-12T03:56:50.857Z,11.70
2018-05-12T03:59:18.440Z,11.70
2018-05-12T04:01:46.024Z,11.80
2018-05-12T04:04:25.465Z,11.90
2018-05-12T04:07:04.998Z,11.90
2018-05-12T04:12:31.980Z,11.80
2018-05-12T04:14:59.458Z,11.80
2018-05-12T04:17:26.969Z,11.70
2018-05-12T04:19:54.472Z,11.70
2018-05-12T04:22:21.980Z,11.70
2018-05-12T04:24:49.476Z,11.80
2018-05-12T04:27:16.993Z,11.80
2018-05-12T04:29:44.557Z,11.80
2018-05-12T04:32:12.073Z,11.90
2018-05-12T04:34:39.581Z,12.00
2018-05-12T04:37:07.092Z,12.10
2018-05-12T04:39:34.593Z,12.10
2018-05-12T04:42:02.109Z,12.10
2018-05-12T04:44:29.609Z,12.20
2018-05-12T04:46:57.181Z,12.30
2018-05-12T04:49:24.736Z,12.30
2018-05-12T04:51:52.284Z,12.30
2018-05-12T04:54:19.938Z,12.40
2018-05-12T04:56:47.404Z,12.40
2018-05-12T04:59:14.904Z,12.40
2018-05-12T05:01:42.419Z,12.50
2018-05-12T05:04:09.976Z,12.60
2018-05-12T05:06:37.488Z,12.70
2018-05-12T05:09:04.993Z,12.90
2018-05-12T05:11:32.520Z,13.00
2018-05-12T05:14:00.020Z,13.10
2018-05-12T05:16:27.548Z,13.20
2018-05-12T05:18:55.841Z,13.40
2018-05-12T05:21:23.349Z,13.40
2018-05-12T05:23:50.863Z,13.50
2018-05-12T05:26:18.364Z,13.50
2018-05-12T05:28:45.882Z,13.60
2018-05-12T05:31:13.380Z,13.70
2018-05-12T05:33:40.896Z,13.80
2018-05-12T05:36:08.444Z,14.00
2018-05-12T05:38:35.956Z,14.10
2018-05-12T05:41:03.450Z,14.00
2018-05-12T05:43:31.728Z,14.00
2018-05-12T05:46:00.033Z,14.00
2018-05-12T05:48:27.555Z,14.00
2018-05-12T05:50:55.821Z,14.00
2018-05-12T05:53:23.409Z,14.00
2018-05-12T05:55:50.925Z,14.00
2018-05-12T05:58:18.442Z,14.10
2018-05-12T06:00:45.989Z,14.10
2018-05-12T06:03:13.505Z,14.20
2018-05-12T06:05:41.005Z,14.20
2018-05-12T06:08:08.516Z,14.30
2018-05-12T06:10:37.521Z,14.70
2018-05-12T06:13:05.036Z,14.70
2018-05-12T06:15:32.530Z,15.20
2018-05-12T06:18:00.057Z,15.70
2018-05-12T06:20:27.585Z,16.00
2018-05-12T06:22:55.100Z,16.30
2018-05-12T06:25:22.597Z,16.60
2018-05-12T06:27:50.150Z,17.00
2018-05-12T06:30:17.636Z,17.40
2018-05-12T06:32:45.177Z,17.70
2018-05-12T06:35:12.677Z,17.90
2018-05-12T06:37:40.193Z,18.20
2018-05-12T06:40:07.750Z,18.40
2018-05-12T06:42:35.267Z,18.50
2018-05-12T06:45:02.870Z,18.50
2018-05-12T06:47:30.385Z,18.80
2018-05-12T06:49:57.989Z,19.00
2018-05-12T06:52:25.501Z,19.20
2018-05-12T06:54:53.000Z,18.70
2018-05-12T06:57:20.569Z,18.90
2018-05-12T06:59:48.069Z,18.60
2018-05-12T07:02:15.592Z,18.30
2018-05-12T07:04:43.096Z,18.30
2018-05-12T07:07:11.397Z,18.00
2018-05-12T07:09:39.657Z,18.20
2018-05-12T07:12:07.169Z,18.20
2018-05-12T07:14:34.704Z,18.80
2018-05-12T07:17:02.212Z,19.40
2018-05-12T07:19:29.762Z,19.50
2018-05-12T07:21:57.281Z,19.70
2018-05-12T07:24:24.857Z,20.20
2018-05-12T07:26:52.352Z,20.10
2018-05-12T07:29:19.864Z,20.40
2018-05-12T07:31:47.370Z,20.60
2018-05-12T07:34:14.885Z,20.90
2018-05-12T07:36:42.384Z,21.00
2018-05-12T07:39:10.006Z,21.00
2018-05-12T07:41:37.448Z,20.90
2018-05-12T07:44:05.005Z,20.90
2018-05-12T07:46:32.505Z,21.10
2018-05-12T07:49:00.013Z,21.20
2018-05-12T07:51:28.286Z,21.00
2018-05-12T07:53:56.573Z,21.00
2018-05-12T07:56:24.070Z,21.00
2018-05-12T07:58:51.590Z,21.20
2018-05-12T08:01:19.084Z,21.10
2018-05-12T08:03:46.598Z,21.40
2018-05-12T08:06:14.862Z,21.30
2018-05-12T08:08:43.144Z,21.50
2018-05-12T08:11:11.413Z,21.50
2018-05-12T08:13:39.692Z,21.80
2018-05-12T08:16:07.209Z,21.70
2018-05-12T08:18:34.732Z,21.60
2018-05-12T08:21:02.288Z,21.90
2018-05-12T08:23:29.804Z,22.20
2018-05-12T08:25:57.310Z,22.00
2018-05-12T08:28:24.836Z,22.00
2018-05-12T08:30:53.100Z,22.50
2018-05-12T08:33:20.697Z,22.50
2018-05-12T08:35:48.256Z,22.40
2018-05-12T08:38:15.775Z,22.50
2018-05-12T08:40:43.380Z,22.60
2018-05-12T08:43:10.937Z,22.60
2018-05-12T08:45:38.492Z,22.70
2018-05-12T08:48:06.009Z,22.80
2018-05-12T08:50:33.614Z,23.00
2018-05-12T08:53:01.140Z,22.90
2018-05-12T08:55:28.644Z,23.00
2018-05-12T08:57:56.156Z,22.70
2018-05-12T09:00:23.661Z,23.20
2018-05-12T09:02:51.184Z,23.20
2018-05-12T09:05:19.451Z,23.00
2018-05-12T09:07:47.720Z,22.70
2018-05-12T09:10:15.242Z,22.70
2018-05-12T09:12:42.748Z,22.70
2018-05-12T09:15:11.037Z,22.90
2018-05-12T09:17:39.301Z,23.00
2018-05-12T09:20:06.820Z,23.00
2018-05-12T09:22:34.312Z,23.00
2018-05-12T09:25:02.596Z,23.00
2018-05-12T09:27:30.869Z,23.00
2018-05-12T09:29:59.165Z,23.10
2018-05-12T09:32:26.681Z,23.00
2018-05-12T09:34:54.200Z,23.10
2018-05-12T09:37:21.800Z,23.00
2018-05-12T09:39:49.284Z,23.30
2018-05-12T09:42:17.658Z,22.70
2018-05-12T09:44:45.170Z,22.70
2018-05-12T09:47:12.656Z,22.80
2018-05-12T09:49:40.181Z,22.80
2018-05-12T09:52:07.681Z,23.10
2018-05-12T09:54:35.201Z,23.50
2018-05-12T09:57:02.705Z,23.50
2018-05-12T09:59:30.999Z,24.10
2018-05-12T10:01:58.506Z,24.10
2018-05-12T10:04:26.055Z,24.50
2018-05-12T10:06:53.560Z,23.80
2018-05-12T10:09:21.844Z,23.00
2018-05-12T10:11:50.112Z,22.70
2018-05-12T10:14:18.397Z,23.00
2018-05-12T10:16:45.921Z,23.00
2018-05-12T10:19:13.453Z,23.10
2018-05-12T10:21:40.959Z,23.50
2018-05-12T10:24:08.493Z,23.90
2018-05-12T10:26:35.998Z,23.90
2018-05-12T10:29:03.524Z,24.00
2018-05-12T10:31:31.027Z,23.60
2018-05-12T10:33:58.548Z,23.70
2018-05-12T10:36:26.825Z,23.40
2018-05-12T10:38:55.177Z,23.60
2018-05-12T10:41:22.636Z,23.60
2018-05-12T10:43:50.161Z,23.60
2018-05-12T10:46:17.664Z,24.00
2018-05-12T10:48:45.184Z,24.30
2018-05-12T10:51:12.693Z,24.30
2018-05-12T10:53:40.985Z,24.30
2018-05-12T10:56:09.253Z,24.00
2018-05-12T10:58:37.532Z,23.90
2018-05-12T11:01:05.816Z,24.30
2018-05-12T11:03:33.317Z,24.30
2018-05-12T11:06:00.832Z,24.00
2018-05-12T11:08:28.338Z,24.50
2018-05-12T11:10:55.857Z,24.60
2018-05-12T11:13:23.360Z,24.50
2018-05-12T11:15:50.963Z,24.40
2018-05-12T11:18:18.393Z,24.60
2018-05-12T11:20:45.909Z,24.60
2018-05-12T11:23:13.417Z,24.80
2018-05-12T11:25:42.043Z,24.30
2018-05-12T11:28:09.497Z,24.30
2018-05-12T11:30:37.011Z,24.70
2018-05-12T11:33:04.509Z,24.70
2018-05-12T11:35:32.024Z,24.90
2018-05-12T11:37:59.529Z,24.20
2018-05-12T11:40:27.045Z,23.50
2018-05-12T11:42:54.692Z,23.60
2018-05-12T11:45:22.205Z,24.10
2018-05-12T11:47:50.017Z,24.00
2018-05-12T11:50:17.531Z,24.30
2018-05-12T11:52:45.034Z,24.30
2018-05-12T11:55:12.545Z,24.60
2018-05-12T11:57:40.041Z,24.20
2018-05-12T12:00:07.557Z,24.00
2018-05-12T12:02:35.115Z,24.20
2018-05-12T12:05:02.589Z,24.20
2018-05-12T12:07:30.105Z,24.50
2018-05-12T12:09:58.369Z,25.00
2018-05-12T12:12:25.881Z,25.00
2018-05-12T12:14:53.377Z,25.30
2018-05-12T12:17:20.901Z,25.00
2018-05-12T12:19:48.401Z,25.60
2018-05-12T12:22:15.916Z,25.10
2018-05-12T12:24:43.417Z,24.50
2018-05-12T12:27:10.932Z,24.40
2018-05-12T12:29:38.429Z,24.80
2018-05-12T12:32:05.947Z,24.70
2018-05-12T12:34:33.449Z,24.70
2018-05-12T12:37:00.964Z,25.00
2018-05-12T12:39:28.456Z,25.10
2018-05-12T12:41:55.977Z,24.90
2018-05-12T12:44:23.474Z,24.50
2018-05-12T12:46:50.989Z,24.40
2018-05-12T12:49:18.497Z,24.20
2018-05-12T12:51:46.038Z,24.00
2018-05-12T12:54:13.528Z,23.70
2018-05-12T12:56:41.807Z,24.10
2018-05-12T12:59:10.073Z,24.40
2018-05-12T13:01:38.357Z,24.50
2018-05-12T13:04:06.626Z,24.50
2018-05-12T13:06:34.909Z,24.40
2018-05-12T13:09:03.173Z,24.60
2018-05-12T13:11:30.685Z,24.60
2018-05-12T13:13:58.189Z,25.30
2018-05-12T13:16:25.709Z,25.10
2018-05-12T13:18:53.214Z,24.60
2018-05-12T13:21:21.497Z,25.40
2018-05-12T13:23:49.756Z,25.30
2018-05-12T13:26:17.268Z,25.30
2018-05-12T13:28:44.764Z,25.20
2018-05-12T13:31:12.276Z,25.00
2018-05-12T13:33:39.817Z,25.20
2018-05-12T13:36:08.068Z,25.40
2018-05-12T13:38:36.333Z,25.60
2018-05-12T13:41:03.859Z,25.50
2018-05-12T13:43:32.361Z,26.00
2018-05-12T13:45:59.877Z,26.10
2018-05-12T13:48:27.372Z,25.80
2018-05-12T13:50:56.065Z,25.80
2018-05-12T13:53:23.564Z,25.80
2018-05-12T13:55:51.380Z,26.00
2018-05-12T13:58:18.882Z,25.80
2018-05-12T14:00:46.349Z,25.80
2018-05-12T14:03:13.845Z,25.90
2018-05-12T14:05:41.336Z,25.50
2018-05-12T14:08:08.861Z,25.40
2018-05-12T14:10:36.357Z,25.20
2018-05-12T14:13:04.636Z,24.50
2018-05-12T14:15:32.909Z,24.20
2018-05-12T14:18:01.292Z,24.00
2018-05-12T14:20:28.721Z,23.90
2018-05-12T14:22:56.236Z,24.10
2018-05-12T14:25:23.728Z,24.10
2018-05-12T14:27:51.244Z,23.90
2018-05-12T14:30:18.744Z,23.90
2018-05-12T14:32:46.257Z,23.70
2018-05-12T14:35:13.752Z,24.00
2018-05-12T14:37:41.261Z,24.10
2018-05-12T14:40:09.529Z,24.20
2018-05-12T14:42:37.887Z,24.20
2018-05-12T14:45:05.327Z,24.20
2018-05-12T14:47:33.613Z,24.00
2018-05-12T14:50:01.108Z,24.00
2018-05-12T14:52:29.393Z,24.00
2018-05-12T14:54:56.893Z,24.00
2018-05-12T14:57:24.405Z,24.10
2018-05-12T14:59:51.905Z,24.40
2018-05-12T15:02:19.422Z,24.60
2018-05-12T15:04:46.941Z,24.50
2018-05-12T15:07:14.457Z,24.70
2018-05-12T15:09:41.958Z,24.60
2018-05-12T15:12:09.470Z,24.60
2018-05-12T15:14:36.964Z,24.70
2018-05-12T15:17:04.479Z,24.50
2018-05-12T15:19:31.982Z,24.50
2018-05-12T15:21:59.500Z,24.30
2018-05-12T15:24:27.001Z,24.10
2018-05-12T15:26:54.518Z,24.20
2018-05-12T15:29:22.021Z,24.30
2018-05-12T15:31:49.540Z,24.30
2018-05-12T15:34:17.036Z,24.20
2018-05-12T15:36:44.549Z,24.30
2018-05-12T15:39:12.045Z,24.40
2018-05-12T15:41:39.561Z,24.10
2018-05-12T15:44:07.098Z,24.20
2018-05-12T15:46:34.584Z,24.00
2018-05-12T15:49:02.077Z,24.10
2018-05-12T15:51:29.593Z,24.20
2018-05-12T15:53:57.090Z,24.00
2018-05-12T15:56:24.607Z,23.80
2018-05-12T15:58:52.109Z,23.90
2018-05-12T16:01:19.605Z,23.90
2018-05-12T16:03:47.884Z,24.00
2018-05-12T16:06:15.389Z,24.00
2018-05-12T16:08:43.677Z,24.30
2018-05-12T16:11:11.176Z,24.30
2018-05-12T16:13:39.454Z,24.00
2018-05-12T16:16:06.949Z,24.00
2018-05-12T16:18:34.465Z,23.80
2018-05-12T16:21:02.733Z,23.80
2018-05-12T16:23:31.012Z,23.70
2018-05-12T16:25:59.277Z,23.60
2018-05-12T16:28:26.792Z,23.60
2018-05-12T16:30:54.293Z,23.50
2018-05-12T16:33:21.805Z,23.40
2018-05-12T16:35:49.301Z,23.40
2018-05-12T16:38:16.813Z,23.40
2018-05-12T16:40:44.308Z,23.10
2018-05-12T16:43:11.822Z,23.10
2018-05-12T16:45:39.319Z,23.10
2018-05-12T16:48:06.830Z,23.40
2018-05-12T16:50:34.344Z,23.40
2018-05-12T16:53:01.866Z,23.30
2018-05-12T16:55:29.361Z,23.30
2018-05-12T16:57:56.875Z,23.30
2018-05-12T17:00:24.372Z,23.40
2018-05-12T17:02:51.888Z,23.30
2018-05-12T17:05:19.385Z,23.30
2018-05-12T17:07:46.903Z,23.10
2018-05-12T17:10:14.404Z,23.20
2018-05-12T17:12:41.921Z,23.30
2018-05-12T17:15:09.417Z,23.10
2018-05-12T17:17:36.928Z,23.00
2018-05-12T17:20:04.430Z,22.90
2018-05-12T17:22:31.950Z,22.70
2018-05-12T17:24:59.453Z,22.50
2018-05-12T17:27:26.969Z,22.00
2018-05-12T17:29:54.473Z,21.40
2018-05-12T17:32:22.056Z,20.50
2018-05-12T17:34:49.522Z,20.00
2018-05-12T17:37:17.804Z,19.10
2018-05-12T17:39:45.305Z,19.10
2018-05-12T17:42:12.829Z,18.90
2018-05-12T17:44:40.324Z,18.70
2018-05-12T17:47:07.828Z,18.70
2018-05-12T17:49:36.104Z,18.50
2018-05-12T17:52:04.368Z,18.30
2018-05-12T17:54:32.648Z,18.30
2018-05-12T17:57:00.917Z,18.10
2018-05-12T17:59:29.215Z,18.20
2018-05-12T18:01:56.725Z,18.20
2018-05-12T18:04:24.246Z,18.00
2018-05-12T18:06:51.752Z,18.10
2018-05-12T18:09:19.273Z,18.10
2018-05-12T18:11:46.781Z,18.20
2018-05-12T18:14:14.301Z,18.20
2018-05-12T18:16:41.804Z,18.00
2018-05-12T18:19:10.098Z,17.70
2018-05-12T18:21:37.609Z,17.70
2018-05-12T18:24:05.129Z,17.50
2018-05-12T18:26:32.634Z,17.50
2018-05-12T18:29:00.153Z,17.20
2018-05-12T18:31:27.649Z,17.00
2018-05-12T18:33:55.170Z,16.90
2018-05-12T18:36:22.673Z,16.80
2018-05-12T18:38:50.191Z,16.70
2018-05-12T18:41:17.702Z,16.60
2018-05-12T18:43:45.990Z,16.40
2018-05-12T18:46:14.260Z,16.40
2018-05-12T18:48:42.556Z,16.50
2018-05-12T18:51:10.064Z,16.40
2018-05-12T18:53:37.580Z,16.30
2018-05-12T18:56:05.082Z,16.40
2018-05-12T18:58:32.601Z,16.50
2018-05-12T19:01:00.101Z,16.30
2018-05-12T19:03:27.613Z,16.30
2018-05-12T19:05:55.111Z,16.30
2018-05-12T19:08:22.644Z,16.40
2018-05-12T19:10:50.153Z,16.60
2018-05-12T19:13:18.432Z,17.20
2018-05-12T19:15:46.701Z,17.40
2018-05-12T19:18:14.984Z,17.40
2018-05-12T19:20:43.248Z,17.40
2018-05-12T19:23:10.840Z,17.40
2018-05-12T19:25:38.396Z,17.20
2018-05-12T19:28:05.958Z,17.10
2018-05-12T19:30:33.474Z,16.80
2018-05-12T19:33:00.986Z,16.50
2018-05-12T19:35:28.485Z,16.10
2018-05-12T19:37:56.004Z,15.90
2018-05-12T19:40:23.506Z,15.70
2018-05-12T19:42:51.009Z,15.50
2018-05-12T19:45:18.535Z,15.40
2018-05-12T19:47:46.817Z,15.20
2018-05-12T19:50:15.109Z,15.00
2018-05-12T19:52:43.378Z,14.90
2018-05-12T19:55:11.664Z,14.90
2018-05-12T19:57:39.160Z,14.90
2018-05-12T20:00:06.688Z,14.80
2018-05-12T20:02:34.192Z,14.80
2018-05-12T20:05:01.715Z,14.70
2018-05-12T20:07:29.264Z,14.60
2018-05-12T20:09:56.821Z,14.50
2018-05-12T20:12:24.328Z,14.50
2018-05-12T20:14:51.861Z,14.50
2018-05-12T20:17:19.362Z,14.50
2018-05-12T20:19:46.889Z,14.50
2018-05-12T20:22:14.390Z,14.40
2018-05-12T20:24:42.688Z,14.30
2018-05-12T20:27:10.248Z,14.30
2018-05-12T20:29:37.811Z,14.30
2018-05-12T20:32:05.313Z,14.20
2018-05-12T20:34:32.829Z,14.20
2018-05-12T20:37:00.384Z,14.20
2018-05-12T20:39:27.909Z,14.20
2018-05-12T20:41:55.417Z,14.10
2018-05-12T20:44:22.956Z,14.10
2018-05-12T20:46:50.464Z,14.00
2018-05-12T20:49:18.077Z,14.00
2018-05-12T20:51:45.589Z,14.00
2018-05-12T20:54:13.116Z,14.00
2018-05-12T20:56:40.616Z,14.00
2018-05-12T20:59:08.141Z,14.00
2018-05-12T21:01:35.644Z,14.00
2018-05-12T21:04:03.965Z,13.90
2018-05-12T21:06:31.510Z,13.90
2018-05-12T21:08:59.033Z,13.80
2018-05-12T21:11:26.537Z,13.80
2018-05-12T21:13:54.063Z,13.80
2018-05-12T21:16:22.333Z,13.80
2018-05-12T21:18:50.630Z,13.80
2018-05-12T21:21:18.128Z,13.80
2018-05-12T21:23:45.723Z,13.90
2018-05-12T21:26:13.168Z,13.80
2018-05-12T21:28:40.672Z,13.90
2018-05-12T21:31:08.188Z,13.90
2018-05-12T21:33:35.693Z,14.00
2018-05-12T21:36:03.242Z,14.00
2018-05-12T21:38:30.744Z,14.00
2018-05-12T21:40:58.265Z,14.00
2018-05-12T21:43:25.770Z,14.00
2018-05-12T21:45:53.305Z,14.00
2018-05-12T21:48:20.808Z,14.10
2018-05-12T21:50:49.097Z,14.20
2018-05-12T21:53:16.609Z,14.20
2018-05-12T21:55:44.133Z,14.10
2018-05-12T21:58:11.632Z,14.10
2018-05-12T22:00:39.154Z,14.10
2018-05-12T22:03:06.664Z,14.20
2018-05-12T22:05:34.189Z,14.20
2018-05-12T22:08:01.759Z,14.20
2018-05-12T22:10:29.253Z,14.10
2018-05-12T22:12:57.521Z,14.40
2018-05-12T22:15:25.820Z,14.50
2018-05-12T22:17:53.324Z,14.50
2018-05-12T22:20:20.871Z,14.70
2018-05-12T22:22:48.376Z,14.60
2018-05-12T22:25:16.665Z,14.60
2018-05-12T22:27:44.179Z,14.60
2018-05-12T22:30:11.789Z,14.60
2018-05-12T22:32:39.293Z,14.70
2018-05-12T22:35:06.910Z,14.70
2018-05-12T22:37:34.417Z,14.70
2018-05-12T22:40:01.939Z,14.60
2018-05-12T22:42:29.440Z,14.60
2018-05-12T22:44:56.957Z,14.70
2018-05-12T22:47:24.597Z,14.70
2018-05-12T22:49:52.033Z,14.70
2018-05-12T22:52:19.529Z,14.60
2018-05-12T22:54:47.049Z,14.50
2018-05-12T22:57:15.316Z,14.40
2018-05-12T22:59:42.837Z,14.40
2018-05-12T23:02:10.341Z,14.40
2018-05-12T23:04:38.625Z,14.20
2018-05-12T23:07:06.917Z,14.20
2018-05-12T23:09:34.445Z,14.20
2018-05-12T23:12:01.949Z,14.10
2018-05-12T23:14:29.469Z,14.10
2018-05-12T23:16:57.764Z,13.90
2018-05-12T23:19:25.285Z,13.80
2018-05-12T23:21:52.784Z,13.60
2018-05-12T23:24:20.285Z,13.40
2018-05-12T23:26:47.805Z,13.30
2018-05-12T23:29:15.360Z,13.30
2018-05-12T23:31:42.877Z,13.20
2018-05-12T23:34:10.385Z,13.10
2018-05-12T23:36:37.937Z,13.00
2018-05-12T23:39:05.454Z,12.90
2018-05-12T23:41:32.974Z,13.00
2018-05-12T23:44:00.472Z,13.00
2018-05-12T23:46:27.993Z,12.90
2018-05-12T23:48:55.516Z,12.80
2018-05-12T23:51:23.808Z,12.80
2018-05-12T23:53:51.321Z,12.90
2018-05-12T23:56:18.844Z,12.90
2018-05-12T23:58:46.350Z,12.80
